Latest Weather Forecast - 25th July 2020 (6pm)

Forecast Period: 

6:00 pm 25th July 2020  to 6:00 am 26th July 2020 

Synopsis:

Weak surface to low-level instability lingers across the islands

Forecast:

Cloudy and breezy with light to moderate showers and a low chance of isolated thunderstorms.

 Weather Advisory:

Flood watch remains in effect until 6:00 am 26th July, 2020; Residents and motorist in areas prone to flooding and landslides or near rivers and streams should remain alert
Winds:

E-ESE at 20-40 km/h (12 - 25 mph)

Sea Conditions:

Moderate to rough  in open water; swells (2.5 – 3.5 m)

 Marine    Advisory:

A high surf advisory and small craft warning are in effect until 6:00 am 26th July, 2020.

Upcoming Tides:
High: 9:33 pm (25th) 11:12 am  10:37 pm
Low: 4:40 am 6:09 pm  

Aviation WX

[Source: ADDS]
METAR
TVSA 091600Z 04014KT 9999 -SHRA BKN012 27/25 Q1014 TEMPO SHRA =
TVSA 101100Z 1012/1112 06010KT 9999 SCT018 SCT036 PROB40 TEMPO 1012/1018 SHRA BKN014 BKN032
TAF
TVSA 101100Z 1012/1112 06010KT 9999 SCT018 SCT036 PROB40 TEMPO 1012/1018 SHRA BKN014 BKN032 =
SR / SS: 09:51 / 22:28 UTC (Sunrise Sunset 2020-08-10)